Time;durP1;ratioP1;P1;durP2;ratioP2;P2;SDS_P1;SDS_P2;PMS_P1;PMS_P2;Temp;Humidity;BMP_temperature;BMP_pressure;BME280_temperature;BME280_humidity;BME280_pressure;Samples;Min_cycle;Max_cycle;Signal;HPM_P1;HPM_P2
2021/12/03 00:02:12;;;;;;;0.30;0.30;;;;;;;;;;5054430;28;20028;-37
2021/12/03 00:04:37;;;;;;;0.63;0.40;;;;;;;;;;5054161;28;20021;-37
2021/12/03 00:07:03;;;;;;;0.60;0.40;;;;;;;;;;5054301;28;20060;-37
2021/12/03 00:09:34;;;;;;;0.32;0.32;;;;;;;;;;5054016;28;20371;-37
2021/12/03 00:11:59;;;;;;;0.88;0.40;;;;;;;;;;5053927;28;20029;-37
2021/12/03 00:14:25;;;;;;;0.32;0.30;;;;;;;;;;5054018;28;20494;-37
2021/12/03 00:16:50;;;;;;;0.50;0.40;;;;;;;;;;5054239;28;20029;-37
2021/12/03 00:19:16;;;;;;;0.88;0.50;;;;;;;;;;5053768;28;20543;-37
2021/12/03 00:21:42;;;;;;;1.02;0.60;;;;;;;;;;5053871;28;20052;-38
2021/12/03 00:24:07;;;;;;;1.23;0.55;;;;;;;;;;5052509;28;20079;-37
2021/12/03 00:26:33;;;;;;;0.70;0.50;;;;;;;;;;5053167;28;20100;-37
2021/12/03 00:28:58;;;;;;;0.43;0.43;;;;;;;;;;5053595;28;20091;-37
2021/12/03 00:31:24;;;;;;;0.25;0.25;;;;;;;;;;5052606;28;20064;-37
2021/12/03 00:33:49;;;;;;;1.73;0.47;;;;;;;;;;5053809;28;20028;-37
2021/12/03 00:36:15;;;;;;;0.28;0.28;;;;;;;;;;5053568;28;20418;-37
2021/12/03 00:38:43;;;;;;;1.13;0.60;;;;;;;;;;5053332;28;20049;-37
2021/12/03 00:41:12;;;;;;;2.42;0.68;;;;;;;;;;5053683;28;20470;-37
2021/12/03 00:43:43;;;;;;;0.38;0.38;;;;;;;;;;5053537;28;20036;-37
2021/12/03 00:46:10;;;;;;;0.30;0.30;;;;;;;;;;5053537;28;20075;-37
2021/12/03 00:48:36;;;;;;;0.52;0.52;;;;;;;;;;5053277;28;20025;-36
2021/12/03 00:51:01;;;;;;;0.25;0.25;;;;;;;;;;5053557;28;20029;-37
2021/12/03 00:53:27;;;;;;;1.67;0.38;;;;;;;;;;5053539;28;20486;-37
2021/12/03 00:55:52;;;;;;;0.30;0.30;;;;;;;;;;5053586;28;20033;-37
2021/12/03 00:58:17;;;;;;;3.10;0.40;;;;;;;;;;5052990;28;20056;-37
2021/12/03 01:00:43;;;;;;;0.60;0.60;;;;;;;;;;5053380;28;20025;-37
2021/12/03 01:03:08;;;;;;;0.30;0.30;;;;;;;;;;5053129;28;20020;-37
2021/12/03 01:05:34;;;;;;;0.22;0.22;;;;;;;;;;5052708;28;20119;-37
2021/12/03 01:08:00;;;;;;;0.30;0.30;;;;;;;;;;5052812;28;20021;-37
2021/12/03 01:10:26;;;;;;;0.85;0.35;;;;;;;;;;5052934;28;20036;-37
2021/12/03 01:12:52;;;;;;;0.30;0.30;;;;;;;;;;5052910;28;20056;-36
2021/12/03 01:15:20;;;;;;;1.27;0.85;;;;;;;;;;5053037;28;20475;-37
2021/12/03 01:17:45;;;;;;;0.30;0.30;;;;;;;;;;5052715;28;20517;-37
2021/12/03 01:20:13;;;;;;;0.30;0.30;;;;;;;;;;5052630;28;20033;-38
2021/12/03 01:22:39;;;;;;;0.30;0.30;;;;;;;;;;5052715;28;20112;-37
2021/12/03 01:25:05;;;;;;;7.70;0.43;;;;;;;;;;5052819;28;20039;-37
2021/12/03 01:27:31;;;;;;;0.25;0.25;;;;;;;;;;5052478;28;20506;-37
2021/12/03 01:29:56;;;;;;;0.68;0.50;;;;;;;;;;5052748;28;20024;-37
2021/12/03 01:32:22;;;;;;;0.43;0.40;;;;;;;;;;5052623;28;20041;-37
2021/12/03 01:34:47;;;;;;;0.30;0.30;;;;;;;;;;5052676;28;20073;-37
2021/12/03 01:37:12;;;;;;;0.40;0.40;;;;;;;;;;5052155;28;20031;-37
2021/12/03 01:39:38;;;;;;;0.43;0.43;;;;;;;;;;5051457;28;20095;-37
2021/12/03 01:42:03;;;;;;;2.90;0.32;;;;;;;;;;5052255;28;20033;-37
2021/12/03 01:44:29;;;;;;;0.30;0.30;;;;;;;;;;5052324;28;20063;-37
2021/12/03 01:46:54;;;;;;;0.35;0.30;;;;;;;;;;5052415;28;20033;-37
2021/12/03 01:49:19;;;;;;;0.30;0.30;;;;;;;;;;5052433;28;20380;-37
2021/12/03 01:51:45;;;;;;;0.93;0.68;;;;;;;;;;5052460;28;20522;-37
2021/12/03 01:54:10;;;;;;;0.40;0.40;;;;;;;;;;5052073;28;20029;-36
2021/12/03 01:56:38;;;;;;;0.35;0.30;;;;;;;;;;5051954;28;20025;-37
2021/12/03 01:59:04;;;;;;;2.30;0.45;;;;;;;;;;5052137;28;20043;-38
2021/12/03 02:01:29;;;;;;;0.30;0.30;;;;;;;;;;5052333;28;20021;-36
2021/12/03 02:03:56;;;;;;;0.20;0.20;;;;;;;;;;5051792;28;20084;-37
2021/12/03 02:06:23;;;;;;;0.20;0.20;;;;;;;;;;5051892;28;20107;-37
2021/12/03 02:08:48;;;;;;;0.38;0.38;;;;;;;;;;5052111;28;20039;-37
2021/12/03 02:11:14;;;;;;;0.20;0.20;;;;;;;;;;5051730;28;20020;-37
2021/12/03 02:13:40;;;;;;;0.30;0.30;;;;;;;;;;5052122;28;20029;-37
2021/12/03 02:16:06;;;;;;;0.32;0.32;;;;;;;;;;5051649;28;20039;-39
2021/12/03 02:18:31;;;;;;;0.40;0.40;;;;;;;;;;5051794;28;20419;-37
2021/12/03 02:20:58;;;;;;;0.70;0.30;;;;;;;;;;5051577;28;20090;-37
2021/12/03 02:23:24;;;;;;;0.60;0.50;;;;;;;;;;5051651;28;20036;-37
2021/12/03 02:25:50;;;;;;;0.40;0.40;;;;;;;;;;5051623;28;20029;-37
2021/12/03 02:28:16;;;;;;;4.35;0.50;;;;;;;;;;5051485;28;20047;-38
2021/12/03 02:30:41;;;;;;;0.40;0.32;;;;;;;;;;5051783;28;20045;-37
2021/12/03 02:33:07;;;;;;;0.43;0.35;;;;;;;;;;5051729;28;20491;-37
2021/12/03 02:35:32;;;;;;;0.47;0.40;;;;;;;;;;5051568;28;20620;-36
2021/12/03 02:37:58;;;;;;;0.30;0.30;;;;;;;;;;5051166;28;20045;-37
2021/12/03 02:40:24;;;;;;;0.28;0.28;;;;;;;;;;5051522;28;20052;-37
2021/12/03 02:42:49;;;;;;;0.57;0.40;;;;;;;;;;5051415;28;20072;-37
2021/12/03 02:45:16;;;;;;;0.30;0.30;;;;;;;;;;5051280;28;20126;-37
2021/12/03 02:47:42;;;;;;;0.63;0.63;;;;;;;;;;5051404;28;20587;-37
2021/12/03 02:50:08;;;;;;;0.38;0.38;;;;;;;;;;5051178;28;20024;-36
2021/12/03 02:52:34;;;;;;;1.35;0.45;;;;;;;;;;5051326;28;20037;-37
2021/12/03 02:54:59;;;;;;;0.28;0.28;;;;;;;;;;5051159;28;20029;-37
2021/12/03 02:57:24;;;;;;;0.47;0.38;;;;;;;;;;5051269;28;20098;-37
2021/12/03 02:59:50;;;;;;;0.30;0.30;;;;;;;;;;5051467;28;20067;-37
2021/12/03 03:02:16;;;;;;;0.30;0.30;;;;;;;;;;5051407;28;20032;-37
2021/12/03 03:04:41;;;;;;;0.28;0.28;;;;;;;;;;5051169;28;20086;-37
2021/12/03 03:07:06;;;;;;;0.50;0.40;;;;;;;;;;5051305;28;20021;-37
2021/12/03 03:09:32;;;;;;;0.30;0.30;;;;;;;;;;5051170;28;20075;-37
2021/12/03 03:11:58;;;;;;;0.30;0.30;;;;;;;;;;5051322;28;20082;-41
2021/12/03 03:14:24;;;;;;;0.52;0.40;;;;;;;;;;5051310;28;20029;-37
2021/12/03 03:16:51;;;;;;;0.22;0.22;;;;;;;;;;5051031;28;20510;-37
2021/12/03 03:19:18;;;;;;;0.73;0.30;;;;;;;;;;5050919;28;20055;-37
2021/12/03 03:21:43;;;;;;;0.30;0.30;;;;;;;;;;5051024;28;20029;-37
2021/12/03 03:24:09;;;;;;;0.40;0.40;;;;;;;;;;5051221;28;20058;-38
2021/12/03 03:26:35;;;;;;;0.20;0.20;;;;;;;;;;5050981;28;20033;-37
2021/12/03 03:29:01;;;;;;;0.22;0.22;;;;;;;;;;5051039;28;20079;-37
2021/12/03 03:31:27;;;;;;;0.30;0.30;;;;;;;;;;5051259;28;20028;-37
2021/12/03 03:33:52;;;;;;;0.20;0.20;;;;;;;;;;5051218;28;20532;-37
2021/12/03 03:36:17;;;;;;;0.85;0.22;;;;;;;;;;5050738;28;20104;-37
2021/12/03 03:38:43;;;;;;;0.40;0.32;;;;;;;;;;5050801;28;20053;-37
2021/12/03 03:41:08;;;;;;;0.70;0.55;;;;;;;;;;5051043;28;20060;-37
2021/12/03 03:43:34;;;;;;;0.20;0.20;;;;;;;;;;5050852;28;20025;-37
2021/12/03 03:45:59;;;;;;;1.15;0.60;;;;;;;;;;5050968;28;20383;-36
2021/12/03 03:48:24;;;;;;;0.38;0.38;;;;;;;;;;5050844;28;20078;-37
2021/12/03 03:50:50;;;;;;;0.22;0.22;;;;;;;;;;5050781;28;20072;-37
2021/12/03 03:53:16;;;;;;;0.57;0.57;;;;;;;;;;5050927;28;20025;-37
2021/12/03 03:55:41;;;;;;;3.38;0.68;;;;;;;;;;5050794;28;20040;-37
2021/12/03 03:58:07;;;;;;;0.30;0.30;;;;;;;;;;5050698;28;20021;-37
2021/12/03 04:00:34;;;;;;;0.30;0.30;;;;;;;;;;5051021;28;20114;-37
2021/12/03 04:02:59;;;;;;;0.20;0.20;;;;;;;;;;5053038;28;20025;-36
2021/12/03 04:05:25;;;;;;;0.20;0.20;;;;;;;;;;5054472;28;20086;-37
2021/12/03 04:07:51;;;;;;;0.30;0.30;;;;;;;;;;5054441;28;20496;-37
2021/12/03 04:10:16;;;;;;;0.88;0.40;;;;;;;;;;5054220;28;20033;-37
2021/12/03 04:12:42;;;;;;;0.30;0.30;;;;;;;;;;5054160;28;20037;-37
2021/12/03 04:15:08;;;;;;;0.73;0.73;;;;;;;;;;5054044;28;20040;-36
2021/12/03 04:17:34;;;;;;;0.30;0.30;;;;;;;;;;5054195;28;20116;-37
2021/12/03 04:19:59;;;;;;;0.57;0.30;;;;;;;;;;5053762;28;20132;-37
2021/12/03 04:22:25;;;;;;;0.30;0.30;;;;;;;;;;5054197;28;20100;-37
2021/12/03 04:24:55;;;;;;;1.33;0.50;;;;;;;;;;5035921;28;20182;-37
2021/12/03 04:27:21;;;;;;;0.47;0.47;;;;;;;;;;5053941;28;20059;-36
2021/12/03 04:29:46;;;;;;;0.30;0.30;;;;;;;;;;5053755;28;20029;-37
2021/12/03 04:32:12;;;;;;;0.22;0.22;;;;;;;;;;5053618;28;20032;-37
2021/12/03 04:34:38;;;;;;;0.50;0.50;;;;;;;;;;5053957;28;20483;-37
2021/12/03 04:37:03;;;;;;;0.40;0.40;;;;;;;;;;5053610;28;20490;-37
2021/12/03 04:39:29;;;;;;;0.40;0.40;;;;;;;;;;5053702;28;20067;-37
2021/12/03 04:41:54;;;;;;;0.55;0.55;;;;;;;;;;5053495;28;20472;-37
2021/12/03 04:44:19;;;;;;;0.30;0.30;;;;;;;;;;5053693;28;20052;-37
2021/12/03 04:46:45;;;;;;;0.60;0.52;;;;;;;;;;5053622;28;20026;-36
2021/12/03 04:49:10;;;;;;;0.43;0.43;;;;;;;;;;5053511;28;20384;-37
2021/12/03 04:51:35;;;;;;;0.63;0.43;;;;;;;;;;5053397;28;20037;-37
2021/12/03 04:54:01;;;;;;;1.08;0.45;;;;;;;;;;5053074;28;20498;-37
2021/12/03 04:56:26;;;;;;;0.43;0.25;;;;;;;;;;5053552;28;20021;-37
2021/12/03 04:58:52;;;;;;;0.30;0.30;;;;;;;;;;5053522;28;20033;-37
2021/12/03 05:01:17;;;;;;;0.50;0.50;;;;;;;;;;5053276;28;20028;-37
2021/12/03 05:03:43;;;;;;;0.30;0.30;;;;;;;;;;5053199;28;20503;-37
2021/12/03 05:06:14;;;;;;;0.60;0.55;;;;;;;;;;5052925;28;20044;-37
2021/12/03 05:08:39;;;;;;;0.40;0.40;;;;;;;;;;5053300;28;20032;-37
2021/12/03 05:11:05;;;;;;;0.93;0.50;;;;;;;;;;5052926;28;20025;-37
2021/12/03 05:13:33;;;;;;;1.60;0.40;;;;;;;;;;5052785;28;20392;-37
2021/12/03 05:15:59;;;;;;;0.63;0.50;;;;;;;;;;5052704;28;20062;-39
2021/12/03 05:18:25;;;;;;;0.88;0.40;;;;;;;;;;5053014;28;20119;-37
2021/12/03 05:20:52;;;;;;;0.20;0.20;;;;;;;;;;5052879;28;20039;-37
2021/12/03 05:23:18;;;;;;;0.63;0.50;;;;;;;;;;5052676;28;20029;-37
2021/12/03 05:25:43;;;;;;;0.20;0.20;;;;;;;;;;5052699;28;20459;-37
2021/12/03 05:28:10;;;;;;;0.30;0.30;;;;;;;;;;5052777;28;20025;-36
2021/12/03 05:30:36;;;;;;;0.50;0.50;;;;;;;;;;5052918;28;20033;-37
2021/12/03 05:33:02;;;;;;;0.20;0.20;;;;;;;;;;5052550;28;20029;-37
2021/12/03 05:35:27;;;;;;;0.17;0.17;;;;;;;;;;5052428;28;20486;-37
2021/12/03 05:37:53;;;;;;;0.40;0.40;;;;;;;;;;5052266;28;20043;-37
2021/12/03 05:40:19;;;;;;;0.60;0.30;;;;;;;;;;5052290;28;20136;-37
2021/12/03 05:42:45;;;;;;;0.22;0.22;;;;;;;;;;5052432;28;20043;-36
2021/12/03 05:45:12;;;;;;;0.30;0.20;;;;;;;;;;5052253;28;20029;-37
2021/12/03 05:47:38;;;;;;;0.40;0.40;;;;;;;;;;5052291;28;20075;-37
2021/12/03 05:50:04;;;;;;;0.40;0.40;;;;;;;;;;5052423;28;20440;-37
2021/12/03 05:52:30;;;;;;;0.30;0.30;;;;;;;;;;5052136;28;20119;-37
2021/12/03 05:54:55;;;;;;;0.40;0.40;;;;;;;;;;5052213;28;20107;-36
2021/12/03 05:57:20;;;;;;;0.50;0.50;;;;;;;;;;5052229;28;20025;-37
2021/12/03 05:59:46;;;;;;;0.73;0.43;;;;;;;;;;5052214;28;20035;-37
2021/12/03 06:02:11;;;;;;;0.30;0.30;;;;;;;;;;5051968;28;20039;-37
2021/12/03 06:04:37;;;;;;;0.47;0.47;;;;;;;;;;5052251;28;20035;-37
2021/12/03 06:07:03;;;;;;;0.40;0.40;;;;;;;;;;5052054;28;20047;-37
2021/12/03 06:09:29;;;;;;;0.30;0.30;;;;;;;;;;5051884;28;20368;-37
2021/12/03 06:11:54;;;;;;;0.47;0.47;;;;;;;;;;5050600;28;20086;-37
2021/12/03 06:14:20;;;;;;;1.63;0.50;;;;;;;;;;5052013;28;20085;-37
2021/12/03 06:16:45;;;;;;;0.40;0.40;;;;;;;;;;5051793;28;20119;-37
2021/12/03 06:19:11;;;;;;;0.30;0.30;;;;;;;;;;5051556;28;20029;-37
2021/12/03 06:21:36;;;;;;;0.68;0.65;;;;;;;;;;5051931;28;20021;-38
2021/12/03 06:24:01;;;;;;;0.30;0.30;;;;;;;;;;5051608;28;20074;-37
2021/12/03 06:26:27;;;;;;;0.20;0.20;;;;;;;;;;5051374;28;20029;-37
2021/12/03 06:28:52;;;;;;;0.22;0.22;;;;;;;;;;5051624;28;20024;-37
2021/12/03 06:31:17;;;;;;;0.30;0.30;;;;;;;;;;5051523;28;20116;-37
2021/12/03 06:33:43;;;;;;;0.40;0.40;;;;;;;;;;5051802;28;20029;-37
2021/12/03 06:36:08;;;;;;;0.20;0.20;;;;;;;;;;5051379;28;20029;-37
2021/12/03 06:38:34;;;;;;;0.30;0.30;;;;;;;;;;5051423;28;20115;-36
2021/12/03 06:41:00;;;;;;;1.27;0.50;;;;;;;;;;5051335;28;20503;-37
2021/12/03 06:43:26;;;;;;;0.65;0.47;;;;;;;;;;5051699;28;20540;-37
2021/12/03 06:45:52;;;;;;;0.43;0.43;;;;;;;;;;5051640;28;20036;-37
2021/12/03 06:48:17;;;;;;;1.10;0.68;;;;;;;;;;5051464;28;20426;-37
2021/12/03 06:50:48;;;;;;;0.45;0.30;;;;;;;;;;5051697;28;20029;-37
2021/12/03 06:53:15;;;;;;;0.30;0.30;;;;;;;;;;5051249;28;20026;-37
2021/12/03 06:55:58;;;;;;;0.40;0.40;;;;;;;;;;5051506;28;20021;-39
2021/12/03 06:58:24;;;;;;;0.63;0.38;;;;;;;;;;5051383;28;20041;-37
2021/12/03 07:00:51;;;;;;;0.22;0.22;;;;;;;;;;5051288;28;20363;-37
2021/12/03 07:03:17;;;;;;;0.40;0.40;;;;;;;;;;5051074;28;20039;-37
2021/12/03 07:05:43;;;;;;;0.30;0.30;;;;;;;;;;5051555;28;20021;-37
2021/12/03 07:08:08;;;;;;;0.52;0.40;;;;;;;;;;5051036;28;20040;-36
2021/12/03 07:10:34;;;;;;;0.85;0.40;;;;;;;;;;5051136;28;20021;-37
2021/12/03 07:13:00;;;;;;;0.50;0.50;;;;;;;;;;5051397;28;20029;-37
2021/12/03 07:15:26;;;;;;;2.08;0.73;;;;;;;;;;5051151;28;20374;-37
2021/12/03 07:17:52;;;;;;;0.40;0.40;;;;;;;;;;5051072;28;20037;-37
2021/12/03 07:20:19;;;;;;;0.55;0.55;;;;;;;;;;5050901;28;20037;-37
2021/12/03 07:22:45;;;;;;;0.38;0.38;;;;;;;;;;5051015;28;20502;-37
2021/12/03 07:25:11;;;;;;;0.30;0.30;;;;;;;;;;5050947;28;20029;-37
2021/12/03 07:27:36;;;;;;;0.30;0.30;;;;;;;;;;5050961;28;20035;-37
2021/12/03 07:30:03;;;;;;;0.43;0.32;;;;;;;;;;5050886;28;20112;-37
2021/12/03 07:32:30;;;;;;;0.50;0.50;;;;;;;;;;5051280;28;20126;-37
2021/12/03 07:34:55;;;;;;;0.55;0.38;;;;;;;;;;5050988;28;20024;-36
2021/12/03 07:37:21;;;;;;;0.47;0.40;;;;;;;;;;5051996;28;20143;-37
2021/12/03 07:39:47;;;;;;;0.30;0.30;;;;;;;;;;5054727;28;20431;-36
2021/12/03 07:42:12;;;;;;;0.47;0.40;;;;;;;;;;5054725;28;20029;-36
2021/12/03 07:44:38;;;;;;;0.80;0.43;;;;;;;;;;5054863;28;20432;-37
2021/12/03 07:47:03;;;;;;;0.50;0.50;;;;;;;;;;5054703;28;20036;-37
2021/12/03 07:49:29;;;;;;;0.75;0.45;;;;;;;;;;5054850;28;20032;-37
2021/12/03 07:51:55;;;;;;;0.30;0.30;;;;;;;;;;5054773;28;20048;-37
2021/12/03 07:54:20;;;;;;;0.88;0.32;;;;;;;;;;5054264;28;20524;-37
2021/12/03 07:56:46;;;;;;;0.70;0.50;;;;;;;;;;5054647;28;20044;-36
2021/12/03 07:59:11;;;;;;;0.40;0.40;;;;;;;;;;5054446;28;20052;-37
2021/12/03 08:01:40;;;;;;;0.73;0.50;;;;;;;;;;5053066;28;20410;-37
2021/12/03 08:04:05;;;;;;;0.50;0.40;;;;;;;;;;5054537;28;20071;-36
2021/12/03 08:06:31;;;;;;;0.63;0.63;;;;;;;;;;5054105;28;20495;-37
2021/12/03 08:08:57;;;;;;;0.20;0.20;;;;;;;;;;5052931;28;20124;-37
2021/12/03 08:11:22;;;;;;;0.22;0.22;;;;;;;;;;5054303;28;20086;-37
2021/12/03 08:13:48;;;;;;;0.35;0.20;;;;;;;;;;5053826;28;20108;-37
2021/12/03 08:16:13;;;;;;;0.82;0.45;;;;;;;;;;5054208;28;20060;-36
2021/12/03 08:18:39;;;;;;;0.40;0.30;;;;;;;;;;5053891;28;20485;-37
2021/12/03 08:21:04;;;;;;;0.45;0.45;;;;;;;;;;5054123;28;20078;-37
2021/12/03 08:23:30;;;;;;;0.35;0.35;;;;;;;;;;5053887;28;20037;-37
2021/12/03 08:25:56;;;;;;;2.60;0.75;;;;;;;;;;5053892;28;20067;-37
2021/12/03 08:28:21;;;;;;;0.57;0.57;;;;;;;;;;5053959;28;20479;-37
2021/12/03 08:30:47;;;;;;;1.08;0.75;;;;;;;;;;5054087;28;20434;-36
2021/12/03 08:33:13;;;;;;;0.40;0.40;;;;;;;;;;5053980;28;20026;-37
2021/12/03 08:35:38;;;;;;;0.40;0.40;;;;;;;;;;5053957;28;20033;-37
2021/12/03 08:38:04;;;;;;;0.50;0.50;;;;;;;;;;5053226;28;20075;-37
2021/12/03 08:40:29;;;;;;;0.73;0.70;;;;;;;;;;5053908;28;20106;-37
2021/12/03 08:42:55;;;;;;;0.40;0.40;;;;;;;;;;5053823;28;20671;-36
2021/12/03 08:45:21;;;;;;;0.40;0.40;;;;;;;;;;5053420;28;20033;-37
2021/12/03 08:47:50;;;;;;;0.40;0.40;;;;;;;;;;5052942;28;20108;-37
2021/12/03 08:50:27;;;;;;;2.35;0.70;;;;;;;;;;5053299;28;20483;-37
2021/12/03 08:55:19;;;;;;;0.40;0.40;;;;;;;;;;5053118;28;20021;-37
2021/12/03 08:57:44;;;;;;;2.10;0.70;;;;;;;;;;5053466;28;20029;-37
2021/12/03 09:00:14;;;;;;;0.50;0.50;;;;;;;;;;5053090;28;20029;-36
2021/12/03 09:02:40;;;;;;;0.50;0.50;;;;;;;;;;5053410;28;20052;-37
2021/12/03 09:05:07;;;;;;;0.30;0.30;;;;;;;;;;5053041;28;20063;-37
2021/12/03 09:07:32;;;;;;;0.60;0.60;;;;;;;;;;5053328;28;20028;-37
2021/12/03 09:09:58;;;;;;;0.50;0.50;;;;;;;;;;5053015;28;20017;-37
2021/12/03 09:12:23;;;;;;;0.80;0.40;;;;;;;;;;5052908;28;20041;-37
2021/12/03 09:24:59;;;;;;;0.85;0.50;;;;;;;;;;5052752;28;20036;-37
2021/12/03 09:27:25;;;;;;;0.70;0.40;;;;;;;;;;5052620;28;20021;-37
2021/12/03 09:29:53;;;;;;;0.30;0.30;;;;;;;;;;5052910;28;20041;-37
2021/12/03 09:32:24;;;;;;;0.40;0.40;;;;;;;;;;5052497;28;20029;-37
2021/12/03 09:34:50;;;;;;;0.82;0.40;;;;;;;;;;5052464;28;20037;-37
2021/12/03 09:37:16;;;;;;;0.60;0.60;;;;;;;;;;5052278;28;20040;-37
2021/12/03 09:39:42;;;;;;;0.52;0.35;;;;;;;;;;5052375;28;20559;-38
2021/12/03 09:42:08;;;;;;;0.43;0.35;;;;;;;;;;5052333;28;20021;-37
2021/12/03 09:44:37;;;;;;;1.67;0.40;;;;;;;;;;5052382;28;20472;-37
2021/12/03 09:47:03;;;;;;;0.20;0.20;;;;;;;;;;5052144;28;20028;-37
2021/12/03 09:49:33;;;;;;;0.40;0.30;;;;;;;;;;5052305;28;20033;-37
2021/12/03 09:52:09;;;;;;;0.30;0.30;;;;;;;;;;5052201;28;20025;-37
2021/12/03 09:54:42;;;;;;;0.20;0.20;;;;;;;;;;5052249;28;20058;-37
2021/12/03 09:57:14;;;;;;;0.30;0.30;;;;;;;;;;5052000;28;20040;-37
2021/12/03 10:06:00;;;;;;;0.30;0.30;;;;;;;;;;5050667;28;20029;-37
2021/12/03 10:13:39;;;;;;;0.22;0.22;;;;;;;;;;5051810;28;20128;-37
2021/12/03 10:18:55;;;;;;;0.30;0.30;;;;;;;;;;5051736;28;20041;-37
2021/12/03 10:30:30;;;;;;;1.25;1.25;;;;;;;;;;5051908;28;20041;-37
2021/12/03 10:44:12;;;;;;;0.80;0.43;;;;;;;;;;5051663;28;20029;-37
2021/12/03 10:46:48;;;;;;;0.20;0.20;;;;;;;;;;5051726;28;20359;-37
2021/12/03 11:29:40;;;;;;;0.80;0.45;;;;;;;;;;5054922;28;20025;-37
2021/12/03 11:37:54;;;;;;;0.30;0.30;;;;;;;;;;5054648;28;20084;-40
2021/12/03 11:52:52;;;;;;;0.40;0.40;;;;;;;;;;5054610;28;20479;-37
2021/12/03 12:27:23;;;;;;;0.35;0.35;;;;;;;;;;5053803;28;20503;-37
2021/12/03 12:38:38;;;;;;;0.95;0.93;;;;;;;;;;5053271;28;20468;-37
2021/12/03 13:08:04;;;;;;;0.75;0.50;;;;;;;;;;5053324;28;20078;-37
2021/12/03 13:15:32;;;;;;;0.80;0.80;;;;;;;;;;5053340;28;20029;-37
2021/12/03 13:37:21;;;;;;;0.30;0.30;;;;;;;;;;5050143;28;20041;-37
2021/12/03 14:09:59;;;;;;;0.65;0.63;;;;;;;;;;5051751;28;20734;-37
2021/12/03 14:52:32;;;;;;;0.65;0.65;;;;;;;;;;5051586;28;20060;-37
2021/12/03 14:55:02;;;;;;;0.55;0.50;;;;;;;;;;5051381;28;20067;-37
2021/12/03 14:57:40;;;;;;;0.90;0.60;;;;;;;;;;5051292;28;20362;-37
2021/12/03 15:03:00;;;;;;;0.77;0.60;;;;;;;;;;5051324;28;20033;-37
2021/12/03 15:06:05;;;;;;;0.95;0.82;;;;;;;;;;5051091;28;20040;-37
2021/12/03 15:08:41;;;;;;;0.60;0.60;;;;;;;;;;5050544;28;20056;-37
2021/12/03 15:32:22;;;;;;;0.93;0.50;;;;;;;;;;5049699;28;20048;-37
2021/12/03 15:54:10;;;;;;;1.10;0.93;;;;;;;;;;5051134;28;20120;-37
2021/12/03 16:04:21;;;;;;;2.63;0.82;;;;;;;;;;5054167;28;20040;-37
2021/12/03 16:09:39;;;;;;;3.08;1.10;;;;;;;;;;5053980;28;20391;-37
2021/12/03 16:14:58;;;;;;;1.10;0.82;;;;;;;;;;5054066;28;20025;-37
2021/12/03 16:23:19;;;;;;;2.08;1.23;;;;;;;;;;5054351;28;20429;-37
2021/12/03 16:52:48;;;;;;;1.08;0.82;;;;;;;;;;5053730;28;20033;-37
2021/12/03 16:55:14;;;;;;;1.85;1.35;;;;;;;;;;5053306;28;20028;-37
2021/12/03 16:57:42;;;;;;;1.15;1.08;;;;;;;;;;5053239;28;20067;-37
2021/12/03 17:00:19;;;;;;;0.47;0.40;;;;;;;;;;5053099;28;20044;-37
2021/12/03 17:02:59;;;;;;;0.98;0.85;;;;;;;;;;5053286;28;20033;-37
2021/12/03 17:13:38;;;;;;;2.83;1.40;;;;;;;;;;5053314;28;20017;-37
2021/12/03 17:48:43;;;;;;;2.15;1.02;;;;;;;;;;5052185;28;20036;-37
2021/12/03 17:56:21;;;;;;;1.63;1.45;;;;;;;;;;5051986;28;20036;-38
2021/12/03 17:58:53;;;;;;;3.55;0.70;;;;;;;;;;5052331;28;20036;-38
2021/12/03 18:03:50;;;;;;;1.77;1.20;;;;;;;;;;5052075;28;20170;-37
2021/12/03 18:51:23;;;;;;;1.95;1.23;;;;;;;;;;5051344;28;20471;-37
2021/12/03 18:56:23;;;;;;;2.97;2.50;;;;;;;;;;5051473;28;20025;-37
2021/12/03 18:59:02;;;;;;;3.58;1.95;;;;;;;;;;5051223;28;20040;-38
2021/12/03 19:01:29;;;;;;;3.88;1.75;;;;;;;;;;5051168;28;20040;-37
2021/12/03 19:04:08;;;;;;;2.78;1.88;;;;;;;;;;5051592;28;20017;-37
2021/12/03 19:06:43;;;;;;;3.03;1.42;;;;;;;;;;5051150;28;20124;-37
2021/12/03 19:12:16;;;;;;;2.50;1.40;;;;;;;;;;5051563;28;20441;-37
2021/12/03 19:14:49;;;;;;;3.67;1.60;;;;;;;;;;5051032;28;20033;-37
2021/12/03 19:17:16;;;;;;;2.28;1.77;;;;;;;;;;5051360;28;20029;-37
2021/12/03 19:19:44;;;;;;;4.15;1.83;;;;;;;;;;5051345;28;20053;-37
2021/12/03 19:22:16;;;;;;;4.63;1.52;;;;;;;;;;5050933;28;20712;-37
2021/12/03 19:24:42;;;;;;;2.40;1.55;;;;;;;;;;5051108;28;20021;-37
2021/12/03 19:27:09;;;;;;;2.13;1.48;;;;;;;;;;5051043;28;20025;-37
2021/12/03 19:29:36;;;;;;;3.42;2.13;;;;;;;;;;5051175;28;20025;-37
2021/12/03 19:32:02;;;;;;;2.45;1.55;;;;;;;;;;5052153;28;20031;-38
2021/12/03 19:34:27;;;;;;;3.13;1.67;;;;;;;;;;5053575;28;20406;-37
2021/12/03 19:36:53;;;;;;;2.38;1.60;;;;;;;;;;5054769;28;20037;-37
2021/12/03 19:39:19;;;;;;;2.03;1.70;;;;;;;;;;5054499;28;20052;-37
2021/12/03 19:44:19;;;;;;;4.20;2.08;;;;;;;;;;5054867;28;20032;-37
2021/12/03 19:46:47;;;;;;;3.13;1.73;;;;;;;;;;5054648;28;20029;-37
2021/12/03 19:52:21;;;;;;;3.40;1.67;;;;;;;;;;5058407;28;20098;-37
2021/12/03 19:54:47;;;;;;;3.65;1.88;;;;;;;;;;5054865;28;20442;-37
2021/12/03 19:57:12;;;;;;;5.75;1.77;;;;;;;;;;5054620;28;20100;-37
2021/12/03 19:59:38;;;;;;;2.90;1.88;;;;;;;;;;5053145;28;20045;-37
2021/12/03 20:02:03;;;;;;;4.20;1.80;;;;;;;;;;5054477;28;20031;-37
2021/12/03 20:04:29;;;;;;;2.75;1.65;;;;;;;;;;5054144;28;20033;-37
2021/12/03 20:06:54;;;;;;;6.15;3.00;;;;;;;;;;5054284;28;20029;-37
2021/12/03 20:09:23;;;;;;;2.80;1.80;;;;;;;;;;5054100;28;20079;-37
2021/12/03 20:11:52;;;;;;;3.30;1.40;;;;;;;;;;5054466;28;20025;-37
2021/12/03 20:14:20;;;;;;;3.42;1.80;;;;;;;;;;5054399;28;20025;-37
2021/12/03 20:19:58;;;;;;;4.00;2.40;;;;;;;;;;5053911;28;20060;-37
2021/12/03 20:22:11;;;;;;;2.72;1.80;;;;;;;;;;5053564;28;20037;-37
2021/12/03 20:27:17;;;;;;;2.78;1.80;;;;;;;;;;5053803;28;20033;-37
2021/12/03 20:29:57;;;;;;;2.58;1.75;;;;;;;;;;5054160;28;20025;-36
2021/12/03 20:35:25;;;;;;;7.03;2.30;;;;;;;;;;5053987;28;20025;-37
2021/12/03 20:37:52;;;;;;;4.30;2.33;;;;;;;;;;5053790;28;20053;-37
2021/12/03 20:40:25;;;;;;;3.25;2.08;;;;;;;;;;5053533;28;20048;-37
2021/12/03 21:09:19;;;;;;;2.47;1.70;;;;;;;;;;5053222;28;20468;-37
2021/12/03 21:11:47;;;;;;;2.67;2.00;;;;;;;;;;5053436;28;20021;-37
2021/12/03 21:14:19;;;;;;;7.47;2.25;;;;;;;;;;5053092;28;20064;-37
2021/12/03 21:17:07;;;;;;;2.80;1.70;;;;;;;;;;5052909;28;20045;-37
2021/12/03 21:20:01;;;;;;;2.88;1.95;;;;;;;;;;5052831;28;20033;-37
2021/12/03 21:22:24;;;;;;;2.28;1.70;;;;;;;;;;5052650;28;20048;-37
2021/12/03 21:24:54;;;;;;;2.92;1.83;;;;;;;;;;5053085;28;20021;-37
2021/12/03 21:27:30;;;;;;;4.22;2.00;;;;;;;;;;5051862;28;20094;-37
2021/12/03 21:30:12;;;;;;;3.75;1.90;;;;;;;;;;5051525;28;20028;-37
2021/12/03 21:41:19;;;;;;;4.95;2.75;;;;;;;;;;5052500;28;20044;-37
2021/12/03 21:43:43;;;;;;;5.93;2.90;;;;;;;;;;5052384;28;20032;-36
2021/12/03 21:46:09;;;;;;;2.90;2.05;;;;;;;;;;5052320;28;20036;-37
2021/12/03 21:48:34;;;;;;;2.55;1.85;;;;;;;;;;5052289;28;20102;-37
2021/12/03 21:51:00;;;;;;;2.97;2.17;;;;;;;;;;5052594;28;20029;-36
2021/12/03 21:53:26;;;;;;;1.48;1.38;;;;;;;;;;5051109;28;20135;-37
2021/12/03 21:55:51;;;;;;;2.95;1.75;;;;;;;;;;5051251;28;20512;-37
2021/12/03 21:58:17;;;;;;;4.38;2.30;;;;;;;;;;5052019;28;20039;-37
2021/12/03 22:00:42;;;;;;;3.38;1.65;;;;;;;;;;5052239;28;20115;-37
2021/12/03 22:03:10;;;;;;;3.63;2.22;;;;;;;;;;5052148;28;20118;-37
2021/12/03 22:05:36;;;;;;;4.22;2.72;;;;;;;;;;5052186;28;20048;-37
2021/12/03 22:08:01;;;;;;;4.13;2.45;;;;;;;;;;5052019;28;20541;-37
2021/12/03 22:10:26;;;;;;;2.88;2.00;;;;;;;;;;5051986;28;20021;-37
2021/12/03 22:12:52;;;;;;;4.03;1.83;;;;;;;;;;5050710;28;20170;-37
2021/12/03 22:15:18;;;;;;;3.25;1.75;;;;;;;;;;5052092;28;20129;-36
2021/12/03 22:17:44;;;;;;;3.33;2.05;;;;;;;;;;5050632;28;20044;-37
2021/12/03 22:20:09;;;;;;;4.35;2.05;;;;;;;;;;5051703;28;20037;-37
2021/12/03 22:22:35;;;;;;;5.28;2.83;;;;;;;;;;5050803;28;20039;-37
2021/12/03 22:25:00;;;;;;;3.03;1.92;;;;;;;;;;5052025;28;20379;-37
2021/12/03 22:27:26;;;;;;;2.50;1.33;;;;;;;;;;5051893;28;20471;-37
2021/12/03 22:29:51;;;;;;;3.03;2.13;;;;;;;;;;5051957;28;20537;-37
2021/12/03 22:32:17;;;;;;;3.08;2.30;;;;;;;;;;5050661;28;20033;-37
2021/12/03 22:34:43;;;;;;;6.18;1.77;;;;;;;;;;5051539;28;20025;-36
2021/12/03 22:37:08;;;;;;;3.85;1.92;;;;;;;;;;5051816;28;20094;-38
2021/12/03 22:39:34;;;;;;;2.58;1.90;;;;;;;;;;5051689;28;20045;-37
2021/12/03 22:42:00;;;;;;;3.08;2.08;;;;;;;;;;5051727;28;20463;-37
2021/12/03 22:44:27;;;;;;;4.38;2.28;;;;;;;;;;5051400;28;20024;-37
2021/12/03 22:52:07;;;;;;;7.78;3.30;;;;;;;;;;5051681;28;20105;-37
2021/12/03 22:54:38;;;;;;;3.60;2.17;;;;;;;;;;5051312;28;20395;-37
2021/12/03 22:57:04;;;;;;;4.75;2.28;;;;;;;;;;5051270;28;20033;-37
2021/12/03 22:59:30;;;;;;;2.97;2.13;;;;;;;;;;5051161;28;20029;-37
2021/12/03 23:01:55;;;;;;;5.18;2.42;;;;;;;;;;5051253;28;20036;-37
2021/12/03 23:04:21;;;;;;;4.90;1.95;;;;;;;;;;5051407;28;20067;-37
2021/12/03 23:06:46;;;;;;;6.00;2.35;;;;;;;;;;5051731;28;20029;-37
2021/12/03 23:09:11;;;;;;;2.00;1.60;;;;;;;;;;5055636;28;20368;-36
2021/12/03 23:11:37;;;;;;;4.18;2.15;;;;;;;;;;5055198;28;20415;-37
2021/12/03 23:14:02;;;;;;;4.15;2.70;;;;;;;;;;5055377;28;20079;-36